Time;durP1;ratioP1;P1;durP2;ratioP2;P2;SDS_P1;SDS_P2;PMS_P1;PMS_P2;Temp;Humidity;BMP_temperature;BMP_pressure;BME280_temperature;BME280_humidity;BME280_pressure;Samples;Min_cycle;Max_cycle;Signal;HPM_P1;HPM_P2
2021/12/05 00:21:44;;;;;;;12.45;5.88;;;-1.80;93.10;;;;;;5034766;28;20071;-76
2021/12/05 00:24:15;;;;;;;10.90;7.50;;;-1.80;93.10;;;;;;5003214;28;20026;-79
2021/12/05 00:26:53;;;;;;;7.75;6.07;;;-1.70;93.20;;;;;;5034491;28;20101;-78
2021/12/05 00:45:40;;;;;;;12.55;6.65;;;-1.80;93.30;;;;;;5034166;28;20394;-79
2021/12/05 00:53:56;;;;;;;10.82;7.07;;;-1.70;93.30;;;;;;4993156;28;20399;-78
2021/12/05 01:12:41;;;;;;;14.50;8.23;;;-1.90;93.40;;;;;;4934617;29;20023;-78
2021/12/05 01:15:17;;;;;;;13.65;8.38;;;-1.90;93.50;;;;;;4934587;29;20568;-78
2021/12/05 01:18:10;;;;;;;12.63;8.55;;;-1.80;93.60;;;;;;4934547;29;20467;-79
2021/12/05 01:20:42;;;;;;;13.57;8.18;;;-1.70;93.60;;;;;;4934112;29;20131;-78
2021/12/05 01:23:20;;;;;;;13.80;8.20;;;-1.70;93.40;;;;;;4934113;29;20362;-78
2021/12/05 01:28:39;;;;;;;13.68;8.82;;;-1.70;93.50;;;;;;4934091;29;20099;-78
2021/12/05 01:31:16;;;;;;;14.40;9.02;;;-1.70;93.70;;;;;;4934097;29;20104;-78
2021/12/05 01:33:54;;;;;;;15.40;10.02;;;-1.70;93.70;;;;;;4933677;29;20055;-78
2021/12/05 01:36:37;;;;;;;12.88;9.90;;;-1.70;93.70;;;;;;4934133;29;20038;-78
2021/12/05 01:39:22;;;;;;;15.07;9.98;;;-1.60;93.70;;;;;;4933308;29;20071;-77
2021/12/05 02:01:20;;;;;;;14.93;9.70;;;-1.70;94.40;;;;;;5032933;28;20409;-78
2021/12/05 02:12:21;;;;;;;18.02;12.25;;;-1.90;94.60;;;;;;5033056;28;20055;-78
2021/12/05 02:39:19;;;;;;;15.40;11.82;;;-1.70;95.20;;;;;;5032448;28;20091;-81
2021/12/05 02:41:48;;;;;;;18.63;10.38;;;-1.60;95.20;;;;;;5032297;28;20041;-79
2021/12/05 02:44:22;;;;;;;23.92;11.98;;;-1.60;95.10;;;;;;5032271;28;20044;-79
2021/12/05 02:46:58;;;;;;;15.32;9.68;;;-1.50;95.20;;;;;;5032431;28;20021;-80
2021/12/05 02:49:25;;;;;;;16.27;10.82;;;-1.40;95.10;;;;;;5032546;28;20072;-78
2021/12/05 02:52:01;;;;;;;16.85;11.50;;;-1.40;95.30;;;;;;5015002;28;20040;-80
2021/12/05 02:54:32;;;;;;;17.95;11.13;;;-1.40;94.90;;;;;;5032305;28;20021;-79
2021/12/05 02:56:59;;;;;;;16.20;10.90;;;-1.40;94.90;;;;;;5036356;28;20017;-79
2021/12/05 02:59:39;;;;;;;23.33;11.30;;;-1.40;94.90;;;;;;5035871;28;20033;-79
2021/12/05 03:02:13;;;;;;;19.42;11.57;;;-1.40;95.00;;;;;;5036553;28;20022;-79
2021/12/05 03:04:45;;;;;;;17.65;11.32;;;-1.40;95.10;;;;;;5035876;28;20032;-79
2021/12/05 03:07:12;;;;;;;19.50;12.05;;;-1.40;95.10;;;;;;5036551;28;20032;-76
2021/12/05 03:09:39;;;;;;;17.65;12.10;;;-1.40;95.20;;;;;;5037038;28;20482;-77
2021/12/05 03:12:10;;;;;;;20.73;11.25;;;-1.30;95.30;;;;;;5039479;28;20473;-78
2021/12/05 03:14:37;;;;;;;21.95;13.65;;;-1.30;95.20;;;;;;5040082;28;20120;-78
2021/12/05 03:17:03;;;;;;;16.70;10.57;;;-1.40;95.30;;;;;;5036247;28;20025;-79
2021/12/05 03:19:29;;;;;;;18.77;11.60;;;-1.30;95.50;;;;;;5035836;28;20375;-79
2021/12/05 03:21:55;;;;;;;19.77;12.40;;;-1.30;95.30;;;;;;5035686;28;20029;-79
2021/12/05 03:24:24;;;;;;;22.38;12.85;;;-1.30;95.30;;;;;;5034593;28;20025;-77
2021/12/05 03:26:51;;;;;;;18.27;11.95;;;-1.30;95.50;;;;;;5035755;28;20025;-79
2021/12/05 03:29:19;;;;;;;22.52;11.82;;;-1.30;95.50;;;;;;5035781;28;20382;-79
2021/12/05 03:31:46;;;;;;;22.70;12.65;;;-1.30;95.50;;;;;;5035378;28;20028;-78
2021/12/05 03:34:15;;;;;;;21.92;13.07;;;-1.20;95.60;;;;;;5035570;28;20103;-79
2021/12/05 03:36:45;;;;;;;17.20;11.40;;;-1.20;95.60;;;;;;4984567;28;20425;-79
2021/12/05 03:39:11;;;;;;;21.27;12.82;;;-1.10;95.60;;;;;;5035198;28;20032;-80
2021/12/05 03:41:39;;;;;;;19.55;12.60;;;-1.00;95.60;;;;;;5035404;28;20478;-78
2021/12/05 03:44:08;;;;;;;19.52;12.55;;;-1.00;95.60;;;;;;5035500;28;20017;-79
2021/12/05 03:46:35;;;;;;;20.27;12.88;;;-0.90;95.50;;;;;;5037094;28;20025;-78
2021/12/05 03:49:07;;;;;;;19.75;12.85;;;-0.90;95.50;;;;;;5036313;28;20041;-79
2021/12/05 03:51:37;;;;;;;19.17;12.95;;;-0.90;95.50;;;;;;5035656;28;20040;-78
2021/12/05 03:54:05;;;;;;;22.83;13.40;;;-0.90;95.60;;;;;;5035506;28;20029;-79
2021/12/05 03:56:32;;;;;;;24.35;13.38;;;-0.80;95.60;;;;;;5035149;28;20026;-78
2021/12/05 03:58:58;;;;;;;21.40;13.32;;;-0.90;95.50;;;;;;5035245;28;20085;-79
2021/12/05 04:01:25;;;;;;;23.83;12.82;;;-0.90;95.60;;;;;;5034931;28;20064;-78
2021/12/05 04:03:52;;;;;;;19.02;11.57;;;-0.90;95.70;;;;;;5035144;28;20017;-79
2021/12/05 04:06:21;;;;;;;18.75;11.32;;;-0.90;95.80;;;;;;5034609;28;20037;-78
2021/12/05 04:08:48;;;;;;;17.15;11.27;;;-0.90;95.80;;;;;;5035137;28;20094;-79
2021/12/05 04:11:19;;;;;;;23.13;12.43;;;-0.90;95.80;;;;;;5035172;28;20022;-78
2021/12/05 04:13:45;;;;;;;21.67;13.50;;;-0.90;95.90;;;;;;5034534;28;20053;-78
2021/12/05 04:16:13;;;;;;;21.08;13.05;;;-0.90;96.00;;;;;;5016187;28;20021;-79
2021/12/05 04:18:39;;;;;;;22.20;12.90;;;-0.80;96.00;;;;;;5034033;28;20017;-79
2021/12/05 04:21:06;;;;;;;21.70;14.05;;;-0.80;96.00;;;;;;5033612;28;20475;-78
2021/12/05 04:23:32;;;;;;;25.83;13.55;;;-0.80;96.00;;;;;;5034193;28;20037;-78
2021/12/05 04:25:58;;;;;;;20.77;13.38;;;-0.80;96.00;;;;;;5033798;28;20057;-78
2021/12/05 04:28:24;;;;;;;19.42;12.73;;;-0.70;96.10;;;;;;5033354;28;20050;-78
2021/12/05 04:30:51;;;;;;;19.20;11.93;;;-0.70;96.10;;;;;;5033385;28;20037;-77
2021/12/05 04:33:17;;;;;;;19.50;12.38;;;-0.80;96.00;;;;;;5034275;28;20065;-79
2021/12/05 04:35:43;;;;;;;21.63;12.63;;;-0.80;96.10;;;;;;5034244;28;20113;-79
2021/12/05 04:38:10;;;;;;;19.73;12.50;;;-0.80;96.20;;;;;;5033186;28;20025;-79
2021/12/05 04:40:36;;;;;;;25.80;13.65;;;-0.90;96.30;;;;;;5033000;28;20390;-78
2021/12/05 04:43:03;;;;;;;21.60;12.45;;;-0.80;96.30;;;;;;5033119;28;20040;-80
2021/12/05 04:45:30;;;;;;;20.70;12.45;;;-0.80;96.20;;;;;;5032977;28;20021;-79
2021/12/05 04:47:57;;;;;;;24.67;13.57;;;-0.70;96.30;;;;;;5033015;28;20687;-78
2021/12/05 04:50:24;;;;;;;22.70;13.45;;;-0.70;96.20;;;;;;5033527;28;20080;-79
2021/12/05 04:52:50;;;;;;;18.70;12.82;;;-0.70;96.20;;;;;;5033791;28;20478;-78
2021/12/05 04:55:18;;;;;;;21.80;13.25;;;-0.70;96.30;;;;;;5033226;28;20029;-79
2021/12/05 04:57:45;;;;;;;25.98;14.43;;;-0.60;96.30;;;;;;5015127;28;20025;-79
2021/12/05 05:00:24;;;;;;;20.90;13.52;;;-0.60;96.40;;;;;;5033076;28;20050;-78
2021/12/05 05:02:50;;;;;;;28.38;13.50;;;-0.50;96.30;;;;;;5033042;28;20025;-79
2021/12/05 05:05:17;;;;;;;22.25;13.07;;;-0.50;96.30;;;;;;5034375;28;20057;-79
2021/12/05 05:07:43;;;;;;;19.83;12.33;;;-0.40;96.30;;;;;;5038612;28;20060;-80
2021/12/05 05:10:19;;;;;;;25.33;15.55;;;-0.40;96.00;;;;;;5015760;28;20490;-79
2021/12/05 05:12:46;;;;;;;22.17;13.02;;;-0.50;96.00;;;;;;5033830;28;20026;-79
2021/12/05 05:15:14;;;;;;;17.05;11.43;;;-0.40;96.00;;;;;;4987935;28;1326395;-80
2021/12/05 05:17:40;;;;;;;21.83;12.75;;;-0.40;95.90;;;;;;5033243;28;20021;-81
2021/12/05 05:28:31;;;;;;;21.98;12.80;;;-0.50;95.80;;;;;;5013799;28;20025;-79
2021/12/05 05:47:54;;;;;;;19.45;11.68;;;-0.80;96.00;;;;;;4978942;28;20128;-78
2021/12/05 05:50:21;;;;;;;23.08;13.82;;;-0.80;95.90;;;;;;5033143;28;20091;-79
2021/12/05 05:52:48;;;;;;;17.90;12.73;;;-0.80;96.00;;;;;;5033157;28;20109;-77
2021/12/05 05:55:14;;;;;;;20.42;13.32;;;-0.80;96.10;;;;;;5033206;28;20116;-79
2021/12/05 06:00:35;;;;;;;22.98;12.60;;;-0.80;96.20;;;;;;5033262;28;20033;-78
2021/12/05 06:03:23;;;;;;;17.65;11.98;;;-0.80;96.10;;;;;;5033090;28;20102;-78
2021/12/05 06:06:07;;;;;;;20.70;13.60;;;-0.80;96.10;;;;;;5033322;28;20030;-80
2021/12/05 06:08:36;;;;;;;18.15;11.88;;;-0.80;96.10;;;;;;5032744;28;20080;-77
2021/12/05 06:11:06;;;;;;;23.20;13.05;;;-0.80;96.10;;;;;;5015086;28;20465;-79
2021/12/05 06:13:33;;;;;;;22.55;14.52;;;-0.80;96.10;;;;;;5032802;28;20103;-79
2021/12/05 06:15:59;;;;;;;24.10;14.95;;;-0.80;96.10;;;;;;5033374;28;20025;-77
2021/12/05 06:18:25;;;;;;;23.48;13.27;;;-0.70;96.20;;;;;;5012094;28;20479;-81
2021/12/05 06:20:52;;;;;;;20.02;13.75;;;-0.60;96.20;;;;;;5015896;28;20033;-80
2021/12/05 06:23:18;;;;;;;21.05;12.25;;;-0.60;96.10;;;;;;5015037;28;20017;-79
2021/12/05 06:25:50;;;;;;;22.40;14.57;;;-0.50;96.00;;;;;;5032968;28;20109;-79
2021/12/05 06:28:19;;;;;;;21.27;14.02;;;-0.50;95.90;;;;;;5032928;28;20028;-79
2021/12/05 06:31:05;;;;;;;24.83;14.38;;;-0.50;95.80;;;;;;5031761;28;20028;-79
2021/12/05 06:47:00;;;;;;;22.02;13.70;;;-0.30;96.00;;;;;;5032770;28;20064;-80
2021/12/05 06:49:26;;;;;;;25.95;15.48;;;-0.30;95.70;;;;;;5032461;28;20030;-79
2021/12/05 06:51:51;;;;;;;23.85;15.93;;;-0.30;95.70;;;;;;5032431;28;20090;-79
2021/12/05 06:54:17;;;;;;;24.60;15.48;;;-0.40;95.60;;;;;;5014924;28;20033;-79
2021/12/05 06:56:43;;;;;;;25.88;15.15;;;-0.40;95.70;;;;;;5032408;28;20022;-78
2021/12/05 06:59:10;;;;;;;21.48;14.30;;;-0.40;95.70;;;;;;5033767;28;20025;-77
2021/12/05 07:01:36;;;;;;;27.95;15.40;;;-0.40;95.80;;;;;;5033295;28;20037;-79
2021/12/05 07:04:10;;;;;;;31.48;18.42;;;-0.40;95.80;;;;;;5034263;28;20131;-78
2021/12/05 07:06:39;;;;;;;23.00;14.90;;;-0.40;95.90;;;;;;5032453;28;20014;-78
2021/12/05 07:09:08;;;;;;;20.08;14.32;;;-0.40;95.80;;;;;;5032171;28;20096;-78
2021/12/05 07:11:51;;;;;;;23.02;14.02;;;-0.30;95.80;;;;;;5032314;28;20022;-78
2021/12/05 07:25:32;;;;;;;24.05;14.80;;;-0.40;95.80;;;;;;5032534;28;20037;-78
2021/12/05 07:44:12;;;;;;;22.55;15.90;;;-0.50;96.10;;;;;;5035185;28;20124;-80
2021/12/05 07:46:39;;;;;;;19.98;13.38;;;-0.50;96.20;;;;;;5035497;28;20475;-80
2021/12/05 07:49:09;;;;;;;19.38;12.93;;;-0.50;96.00;;;;;;5035723;28;20104;-81
2021/12/05 07:51:39;;;;;;;19.65;11.38;;;-0.50;96.00;;;;;;5036147;28;20467;-80
2021/12/05 07:54:11;;;;;;;20.52;13.88;;;-0.60;96.00;;;;;;5035761;28;20025;-80
2021/12/05 07:59:38;;;;;;;21.50;13.80;;;-0.60;96.10;;;;;;5037671;28;20026;-80
2021/12/05 08:15:51;;;;;;;20.85;14.30;;;-0.20;96.20;;;;;;5036372;28;20091;-80
2021/12/05 08:18:17;;;;;;;23.77;15.13;;;-0.20;96.10;;;;;;5035577;28;20028;-79
2021/12/05 08:20:44;;;;;;;24.02;15.52;;;-0.10;96.10;;;;;;5034754;28;20033;-80
2021/12/05 08:23:13;;;;;;;20.10;14.00;;;-0.10;96.00;;;;;;5035041;28;20463;-80
2021/12/05 08:25:41;;;;;;;27.52;15.25;;;0.00;96.00;;;;;;5035037;28;20025;-80
2021/12/05 08:30:48;;;;;;;25.30;14.77;;;0.10;96.00;;;;;;5035011;28;20429;-80
2021/12/05 08:41:57;;;;;;;22.05;14.18;;;0.20;95.90;;;;;;4971136;28;20056;-77
2021/12/05 09:20:17;;;;;;;23.35;13.05;;;0.30;95.30;;;;;;4984402;28;20072;-82
2021/12/05 09:23:07;;;;;;;24.30;13.43;;;0.30;95.20;;;;;;5033648;28;20029;-82
2021/12/05 09:26:05;;;;;;;20.25;13.30;;;0.30;95.20;;;;;;5043537;28;20091;-79
2021/12/05 09:38:49;;;;;;;19.63;13.07;;;0.30;95.40;;;;;;5033275;28;20048;-79
2021/12/05 10:06:52;;;;;;;23.10;14.90;;;0.20;96.00;;;;;;5033063;28;20387;-78
2021/12/05 10:15:04;;;;;;;28.75;16.20;;;0.30;96.10;;;;;;5013170;28;20069;-78
2021/12/05 10:26:27;;;;;;;23.67;14.75;;;0.40;96.20;;;;;;5034236;28;20485;-79
2021/12/05 10:34:39;;;;;;;23.52;15.02;;;0.40;96.30;;;;;;5032598;28;20028;-77
2021/12/05 10:37:12;;;;;;;;;;;0.40;96.30;;;;;;5033198;28;20049;-79
2021/12/05 10:39:39;;;;;;;23.73;14.02;;;0.40;96.30;;;;;;5014663;28;19975;-80
2021/12/05 10:42:41;;;;;;;23.65;15.93;;;0.30;96.50;;;;;;5032749;28;20025;-79
2021/12/05 10:45:25;;;;;;;21.42;15.15;;;0.40;96.60;;;;;;5032114;28;20033;-79
2021/12/05 10:47:54;;;;;;;23.77;14.85;;;0.30;96.70;;;;;;5032725;28;20024;-79
2021/12/05 10:50:38;;;;;;;20.95;15.68;;;0.40;96.70;;;;;;5033311;28;20488;-78
2021/12/05 10:53:24;;;;;;;26.38;16.52;;;0.40;96.70;;;;;;5014388;28;20116;-80
2021/12/05 10:56:10;;;;;;;25.30;16.20;;;0.50;96.70;;;;;;5032285;28;20033;-79
2021/12/05 10:58:50;;;;;;;27.08;16.17;;;0.50;96.60;;;;;;5014537;28;20029;-78
2021/12/05 11:01:23;;;;;;;23.17;15.50;;;0.50;96.50;;;;;;5032554;28;20483;-78
2021/12/05 11:03:57;;;;;;;25.80;14.07;;;0.50;96.40;;;;;;5032640;28;20160;-79
2021/12/05 11:06:32;;;;;;;25.27;14.60;;;0.50;96.40;;;;;;5032496;28;20474;-79
2021/12/05 11:09:08;;;;;;;20.58;13.23;;;0.50;96.30;;;;;;5032341;28;20475;-80
2021/12/05 11:11:35;;;;;;;19.50;12.80;;;0.40;96.40;;;;;;5032285;28;20446;-79
2021/12/05 11:14:08;;;;;;;24.10;14.43;;;0.40;96.40;;;;;;5032953;28;20408;-79
2021/12/05 11:16:46;;;;;;;22.50;15.07;;;0.40;96.40;;;;;;5034184;28;20406;-82
2021/12/05 11:19:22;;;;;;;33.85;16.67;;;0.50;96.40;;;;;;5036139;28;20033;-79
2021/12/05 11:21:58;;;;;;;22.08;13.40;;;0.40;96.50;;;;;;5035919;28;20422;-79
2021/12/05 11:24:29;;;;;;;18.42;13.77;;;0.40;96.40;;;;;;5018143;28;20026;-79
2021/12/05 11:27:11;;;;;;;25.17;14.73;;;0.30;96.40;;;;;;5018246;28;20072;-80
2021/12/05 11:29:48;;;;;;;22.60;14.10;;;0.30;96.30;;;;;;5035735;28;20148;-79
2021/12/05 11:32:19;;;;;;;21.75;13.85;;;0.30;96.30;;;;;;5035732;28;20026;-78
2021/12/05 11:34:47;;;;;;;31.73;15.05;;;0.30;96.40;;;;;;5035761;28;20038;-78
2021/12/05 11:37:13;;;;;;;19.35;13.02;;;0.30;96.40;;;;;;5035839;28;20029;-78
2021/12/05 11:39:39;;;;;;;36.05;25.17;;;0.30;96.30;;;;;;5035580;28;20044;-79
2021/12/05 11:42:18;;;;;;;21.23;14.18;;;0.30;96.40;;;;;;5018783;28;20026;-80
2021/12/05 11:44:46;;;;;;;23.05;12.52;;;0.30;96.40;;;;;;5035914;28;20022;-80
2021/12/05 11:47:18;;;;;;;22.45;13.38;;;0.30;96.40;;;;;;5018138;28;20417;-80
2021/12/05 11:49:44;;;;;;;19.00;12.57;;;0.30;96.40;;;;;;5037263;28;20030;-79
2021/12/05 11:52:10;;;;;;;20.85;12.73;;;0.30;96.30;;;;;;5036263;28;20456;-79
2021/12/05 11:54:45;;;;;;;26.75;15.20;;;0.30;96.40;;;;;;5035627;28;20033;-80
2021/12/05 11:57:25;;;;;;;19.58;15.75;;;0.30;96.40;;;;;;5035401;28;20093;-80
2021/12/05 11:59:58;;;;;;;19.90;15.02;;;0.40;96.40;;;;;;5037193;28;20036;-76
2021/12/05 12:02:33;;;;;;;21.80;13.43;;;0.30;96.30;;;;;;5035118;28;20018;-80
2021/12/05 12:05:14;;;;;;;19.30;11.85;;;0.40;96.10;;;;;;5035938;28;20537;-79
2021/12/05 12:07:52;;;;;;;18.50;13.25;;;0.40;96.10;;;;;;5035335;28;20022;-78
2021/12/05 12:10:29;;;;;;;22.48;14.02;;;0.30;96.10;;;;;;5035575;28;20036;-80
2021/12/05 12:13:00;;;;;;;;;;;0.20;96.00;;;;;;5033920;28;20022;-80
2021/12/05 12:15:29;;;;;;;21.65;11.80;;;0.20;96.10;;;;;;5033997;28;19923;-81
2021/12/05 12:18:05;;;;;;;16.73;11.15;;;0.20;96.20;;;;;;5026204;28;20060;-82
2021/12/05 12:20:33;;;;;;;16.05;11.82;;;0.30;96.10;;;;;;5037310;28;20033;-82
2021/12/05 12:22:59;;;;;;;17.10;11.70;;;0.20;96.10;;;;;;5017409;28;20033;-82
2021/12/05 12:25:29;;;;;;;16.60;11.52;;;0.20;96.10;;;;;;5034317;28;20057;-80
2021/12/05 12:27:55;;;;;;;18.50;13.18;;;0.20;96.10;;;;;;5035625;28;20049;-81
2021/12/05 12:30:25;;;;;;;18.90;11.63;;;0.20;96.10;;;;;;5025965;28;20084;-81
2021/12/05 12:32:58;;;;;;;19.88;12.07;;;0.20;96.10;;;;;;5020545;28;20034;-82
2021/12/05 12:35:29;;;;;;;22.52;14.95;;;0.30;96.00;;;;;;5026684;28;20087;-81
2021/12/05 12:38:09;;;;;;;21.90;14.43;;;0.30;96.00;;;;;;5016950;28;20032;-81
2021/12/05 12:41:03;;;;;;;18.08;11.50;;;0.30;96.00;;;;;;5029456;28;20033;-82
2021/12/05 12:43:47;;;;;;;18.98;12.70;;;0.30;96.10;;;;;;5032735;28;20124;-82
2021/12/05 12:46:36;;;;;;;19.13;12.52;;;0.30;96.10;;;;;;5021471;28;20036;-77
2021/12/05 12:49:16;;;;;;;18.30;11.80;;;0.20;96.00;;;;;;5034268;28;20085;-78
2021/12/05 12:51:45;;;;;;;18.35;12.82;;;0.20;96.20;;;;;;5034186;28;20028;-78
2021/12/05 12:54:17;;;;;;;21.65;13.27;;;0.20;96.20;;;;;;5033910;28;20394;-79
2021/12/05 12:57:01;;;;;;;20.50;14.27;;;0.20;96.30;;;;;;5034050;28;20086;-78
2021/12/05 12:59:31;;;;;;;19.85;12.68;;;0.20;96.40;;;;;;5033782;28;20115;-81
2021/12/05 13:02:37;;;;;;;20.70;14.38;;;0.20;96.50;;;;;;5016289;28;20057;-79
2021/12/05 13:05:05;;;;;;;21.23;14.98;;;0.20;96.60;;;;;;5017653;28;20044;-79
2021/12/05 13:10:37;;;;;;;22.10;13.98;;;0.30;96.80;;;;;;5029597;28;20033;-77
2021/12/05 13:13:16;;;;;;;24.52;13.07;;;0.30;96.80;;;;;;5021411;28;20049;-79
2021/12/05 13:15:49;;;;;;;21.10;13.90;;;0.30;96.80;;;;;;5032091;28;20072;-82
2021/12/05 13:18:31;;;;;;;21.05;13.50;;;0.30;96.80;;;;;;5033712;28;20104;-78
2021/12/05 13:21:11;;;;;;;22.17;14.30;;;0.30;96.70;;;;;;5033560;28;20025;-78
2021/12/05 13:23:53;;;;;;;36.03;14.52;;;0.30;96.70;;;;;;5021487;28;20025;-81
2021/12/05 13:26:23;;;;;;;21.65;14.35;;;0.30;96.80;;;;;;5014707;28;20474;-81
2021/12/05 13:28:52;;;;;;;25.77;15.05;;;0.30;96.90;;;;;;5020689;28;20028;-78
2021/12/05 13:31:33;;;;;;;25.35;14.45;;;0.30;96.90;;;;;;5033836;28;20044;-80
2021/12/05 13:34:24;;;;;;;19.73;13.23;;;0.40;97.00;;;;;;5033420;28;20021;-81
2021/12/05 13:37:08;;;;;;;25.80;14.57;;;0.30;97.00;;;;;;5033414;28;20510;-81
2021/12/05 13:39:47;;;;;;;22.20;13.93;;;0.30;97.10;;;;;;5033022;28;20153;-79
2021/12/05 13:42:16;;;;;;;22.08;13.45;;;0.20;97.10;;;;;;5015185;28;20422;-81
2021/12/05 13:45:03;;;;;;;24.25;16.23;;;0.20;97.30;;;;;;5033689;28;20021;-81
2021/12/05 13:47:53;;;;;;;27.65;14.75;;;0.20;97.40;;;;;;5015590;28;20033;-78
2021/12/05 13:52:49;;;;;;;23.65;14.18;;;0.20;97.60;;;;;;5032796;28;20083;-75
2021/12/05 13:55:45;;;;;;;23.98;14.88;;;0.20;97.60;;;;;;5032417;28;20101;-75
2021/12/05 13:58:34;;;;;;;21.02;14.30;;;0.20;97.60;;;;;;5033148;28;20022;-74
2021/12/05 14:01:01;;;;;;;28.35;14.73;;;0.20;97.70;;;;;;5014684;28;20521;-75
2021/12/05 14:03:45;;;;;;;;;;;0.20;97.70;;;;;;5032407;28;20029;-76
2021/12/05 14:06:39;;;;;;;22.83;14.10;;;0.10;97.60;;;;;;5021663;28;19917;-74
2021/12/05 14:09:23;;;;;;;18.40;11.98;;;0.20;97.60;;;;;;5032534;28;20025;-73
2021/12/05 14:12:03;;;;;;;29.10;14.63;;;0.20;97.50;;;;;;5031769;28;20030;-77
2021/12/05 14:14:40;;;;;;;24.17;14.20;;;0.20;97.50;;;;;;5010572;28;20038;-75
2021/12/05 14:17:11;;;;;;;23.45;15.57;;;0.20;97.40;;;;;;5012380;28;20018;-75
2021/12/05 14:19:38;;;;;;;50.40;26.30;;;0.30;97.30;;;;;;5006985;28;20030;-75
2021/12/05 14:22:07;;;;;;;24.55;14.85;;;0.30;97.20;;;;;;5011522;28;20028;-74
2021/12/05 14:24:40;;;;;;;21.15;13.65;;;0.30;97.10;;;;;;5012487;28;20030;-75
2021/12/05 14:27:09;;;;;;;19.48;13.55;;;0.30;97.10;;;;;;5018823;28;20026;-75
2021/12/05 14:29:40;;;;;;;17.27;12.90;;;0.40;97.00;;;;;;5012599;28;20053;-74
2021/12/05 14:32:12;;;;;;;19.02;11.55;;;0.40;96.80;;;;;;5012213;28;20022;-74
2021/12/05 14:34:39;;;;;;;21.10;13.80;;;0.40;96.80;;;;;;5011367;28;20363;-75
2021/12/05 14:37:10;;;;;;;20.83;13.00;;;0.40;96.60;;;;;;5011743;28;20096;-75
2021/12/05 14:39:43;;;;;;;29.17;18.30;;;0.40;96.60;;;;;;5011425;28;20034;-77
2021/12/05 14:42:19;;;;;;;20.65;13.18;;;0.40;96.50;;;;;;5012673;28;20487;-74
2021/12/05 14:44:49;;;;;;;20.10;12.38;;;0.40;96.40;;;;;;5012267;28;20049;-75
2021/12/05 14:47:21;;;;;;;22.02;14.05;;;0.40;96.40;;;;;;5012062;28;20037;-76
2021/12/05 14:49:51;;;;;;;17.65;11.18;;;0.40;96.30;;;;;;5012438;28;20500;-74
2021/12/05 14:52:31;;;;;;;18.73;12.35;;;0.30;96.30;;;;;;5015712;28;20364;-74
2021/12/05 14:55:00;;;;;;;21.85;13.80;;;0.30;96.40;;;;;;5031891;28;20110;-77
2021/12/05 14:57:29;;;;;;;24.70;14.52;;;0.30;96.40;;;;;;5014481;28;20018;-75
2021/12/05 15:00:01;;;;;;;20.33;12.90;;;0.30;96.30;;;;;;5009037;28;20502;-75
2021/12/05 15:02:28;;;;;;;17.63;10.43;;;0.30;96.20;;;;;;5011018;28;20114;-78
2021/12/05 15:04:54;;;;;;;21.83;13.10;;;0.30;96.20;;;;;;4997784;28;20022;-76
2021/12/05 15:07:21;;;;;;;21.83;12.82;;;0.30;96.30;;;;;;5011797;28;20026;-77
2021/12/05 15:09:51;;;;;;;23.60;13.10;;;0.30;96.30;;;;;;5015138;28;20037;-75
2021/12/05 15:12:27;;;;;;;24.90;15.35;;;0.30;96.30;;;;;;5016227;28;20021;-74
2021/12/05 15:14:56;;;;;;;25.27;14.68;;;0.30;96.30;;;;;;5029201;28;21701;-74
2021/12/05 15:17:31;;;;;;;19.83;13.13;;;0.30;96.30;;;;;;5035995;28;20087;-76
2021/12/05 15:20:00;;;;;;;21.63;14.57;;;0.30;96.30;;;;;;5015904;28;20045;-75
2021/12/05 15:22:27;;;;;;;18.20;11.10;;;0.30;96.40;;;;;;5035766;28;20021;-75
2021/12/05 15:25:08;;;;;;;22.00;13.30;;;0.40;96.30;;;;;;5034380;28;20087;-72
2021/12/05 15:27:36;;;;;;;24.40;14.90;;;0.30;96.30;;;;;;5036188;28;20061;-74
2021/12/05 15:30:07;;;;;;;;;;;0.30;96.30;;;;;;5036933;28;20021;-74
2021/12/05 15:32:33;;;;;;;22.10;13.68;;;0.30;96.30;;;;;;5036440;28;19905;-74
2021/12/05 15:35:05;;;;;;;24.00;15.70;;;0.30;96.30;;;;;;5035815;28;20025;-77
2021/12/05 15:37:31;;;;;;;26.17;16.63;;;0.30;96.30;;;;;;5017683;28;20028;-74
2021/12/05 15:39:59;;;;;;;29.65;17.42;;;0.30;96.40;;;;;;5035457;28;20033;-75
2021/12/05 15:42:37;;;;;;;23.60;15.68;;;0.30;96.40;;;;;;5035699;28;20055;-75
2021/12/05 15:45:10;;;;;;;22.08;15.60;;;0.30;96.30;;;;;;5035517;28;20032;-74
2021/12/05 15:47:38;;;;;;;27.95;15.57;;;0.20;96.30;;;;;;5035691;28;20028;-75
2021/12/05 15:50:06;;;;;;;30.27;17.65;;;0.20;96.40;;;;;;5036045;28;20486;-74
2021/12/05 15:52:46;;;;;;;27.50;17.88;;;0.20;96.50;;;;;;5016874;28;20482;-76
2021/12/05 15:55:24;;;;;;;26.25;17.58;;;0.20;96.60;;;;;;5035708;28;20506;-76
2021/12/05 15:58:00;;;;;;;28.90;17.05;;;0.20;96.60;;;;;;5017297;28;20026;-75
2021/12/05 16:00:33;;;;;;;24.10;16.58;;;0.30;96.60;;;;;;5035296;28;20041;-75
2021/12/05 16:03:10;;;;;;;25.10;16.15;;;0.20;96.60;;;;;;5034497;28;20505;-76
2021/12/05 16:05:38;;;;;;;33.78;17.40;;;0.30;96.60;;;;;;5033812;28;20033;-77
2021/12/05 16:08:10;;;;;;;25.70;15.85;;;0.30;96.60;;;;;;5018351;28;20030;-77
2021/12/05 16:10:39;;;;;;;25.90;16.02;;;0.30;96.60;;;;;;5017123;28;20471;-75
2021/12/05 16:13:40;;;;;;;24.23;15.25;;;0.30;96.50;;;;;;5034632;28;20033;-75
2021/12/05 16:16:11;;;;;;;23.48;13.73;;;0.30;96.40;;;;;;5017261;28;20482;-76
2021/12/05 16:18:39;;;;;;;23.65;14.68;;;0.30;96.40;;;;;;5034350;28;20032;-75
2021/12/05 16:21:18;;;;;;;22.40;15.63;;;0.30;96.40;;;;;;5034822;28;20042;-75
2021/12/05 16:23:45;;;;;;;25.73;15.10;;;0.30;96.40;;;;;;5035106;28;20096;-77
2021/12/05 16:26:15;;;;;;;25.15;15.55;;;0.30;96.40;;;;;;5034833;28;20033;-77
2021/12/05 16:28:49;;;;;;;24.52;14.93;;;0.30;96.40;;;;;;5034814;28;20029;-75
2021/12/05 16:31:21;;;;;;;25.17;15.70;;;0.30;96.30;;;;;;5034131;28;20018;-73
2021/12/05 16:33:58;;;;;;;23.80;16.83;;;0.30;96.30;;;;;;5033991;28;20041;-75
2021/12/05 16:36:28;;;;;;;;;;;0.40;96.20;;;;;;5034495;28;20056;-77
2021/12/05 16:38:54;;;;;;;28.13;17.85;;;0.30;96.20;;;;;;5034087;28;19988;-77
2021/12/05 16:41:50;;;;;;;22.27;15.75;;;0.30;96.20;;;;;;5033081;28;20041;-77
2021/12/05 16:44:25;;;;;;;28.52;17.10;;;0.20;96.20;;;;;;5033918;28;20418;-76
2021/12/05 16:46:52;;;;;;;27.67;18.75;;;0.20;96.30;;;;;;5033498;28;20029;-77
2021/12/05 16:49:46;;;;;;;25.45;17.70;;;0.20;96.40;;;;;;5034031;28;20032;-77
2021/12/05 16:52:24;;;;;;;25.98;16.60;;;0.20;96.50;;;;;;5030255;28;20030;-78
2021/12/05 16:54:54;;;;;;;30.80;20.15;;;0.20;96.50;;;;;;5033891;28;20028;-75
2021/12/05 16:57:24;;;;;;;30.40;19.13;;;0.20;96.50;;;;;;5033273;28;20124;-77
2021/12/05 16:59:53;;;;;;;30.33;21.13;;;0.20;96.50;;;;;;5032206;28;20037;-74
2021/12/05 17:02:34;;;;;;;24.98;18.95;;;0.20;96.50;;;;;;5033959;28;20390;-76
2021/12/05 17:05:14;;;;;;;28.42;18.27;;;0.20;96.50;;;;;;5033055;28;20021;-75
2021/12/05 17:07:56;;;;;;;30.20;18.52;;;0.20;96.50;;;;;;5033548;28;20443;-75
2021/12/05 17:10:24;;;;;;;27.58;17.45;;;0.20;96.60;;;;;;5034023;28;20072;-75
2021/12/05 17:12:55;;;;;;;28.90;18.13;;;0.20;96.50;;;;;;5033586;28;20095;-75
2021/12/05 17:15:23;;;;;;;33.13;18.40;;;0.20;96.50;;;;;;5033154;28;20124;-75
2021/12/05 17:17:53;;;;;;;;;;;0.10;96.50;;;;;;5034343;28;20040;-78
2021/12/05 17:20:22;;;;;;;26.95;17.83;;;0.10;96.40;;;;;;5033827;28;19960;-74
2021/12/05 17:23:17;;;;;;;28.00;16.75;;;0.10;96.60;;;;;;5033868;28;20053;-77
2021/12/05 17:25:46;;;;;;;29.73;17.73;;;0.10;96.60;;;;;;5031259;28;20117;-76
2021/12/05 17:28:18;;;;;;;34.67;20.05;;;0.10;96.50;;;;;;5015939;28;20018;-77
2021/12/05 17:30:53;;;;;;;30.10;20.63;;;0.10;96.50;;;;;;5033506;28;20036;-78
2021/12/05 17:33:37;;;;;;;35.35;17.63;;;0.10;96.50;;;;;;5033570;28;20133;-78
2021/12/05 17:36:18;;;;;;;33.25;19.23;;;0.10;96.50;;;;;;5032528;28;20029;-76
2021/12/05 17:38:48;;;;;;;35.70;21.55;;;0.10;96.40;;;;;;5034298;28;20056;-76
2021/12/05 17:41:19;;;;;;;33.03;21.17;;;0.10;96.40;;;;;;5033733;28;20463;-74
2021/12/05 17:43:46;;;;;;;29.52;17.75;;;0.10;96.40;;;;;;5033088;28;20109;-77
2021/12/05 17:46:15;;;;;;;31.98;18.30;;;0.00;96.40;;;;;;5032918;28;20099;-75
2021/12/05 17:48:41;;;;;;;29.45;19.23;;;0.00;96.50;;;;;;5032721;28;20033;-77
2021/12/05 17:51:07;;;;;;;29.63;18.10;;;-0.10;96.40;;;;;;5031263;28;20025;-78
2021/12/05 17:53:39;;;;;;;28.48;17.27;;;-0.20;96.40;;;;;;5032910;28;20501;-77
2021/12/05 17:56:16;;;;;;;27.63;18.17;;;-0.20;96.60;;;;;;5033107;28;20156;-77
2021/12/05 17:59:13;;;;;;;29.38;17.45;;;-0.20;96.80;;;;;;5033475;28;20025;-78
2021/12/05 18:04:32;;;;;;;33.80;19.13;;;-0.30;96.60;;;;;;5032206;28;20040;-78
2021/12/05 18:07:02;;;;;;;31.25;17.98;;;-0.30;96.70;;;;;;5033171;28;20474;-78
2021/12/05 18:09:31;;;;;;;26.88;16.63;;;-0.30;96.70;;;;;;5033319;28;20435;-78
2021/12/05 18:11:57;;;;;;;25.30;16.73;;;-0.30;96.70;;;;;;5032954;28;20390;-80
2021/12/05 18:14:23;;;;;;;29.35;16.15;;;-0.20;96.60;;;;;;5032432;28;20064;-78